createdAt,value
2022-09-20T00:01:22.116Z,2.17
2022-09-20T00:03:54.421Z,2.53
2022-09-20T00:06:29.905Z,2.30
2022-09-20T00:08:57.306Z,2.00
2022-09-20T00:11:26.446Z,2.43
2022-09-20T00:13:55.999Z,2.10
2022-09-20T00:16:25.980Z,2.10
2022-09-20T00:18:54.614Z,2.60
2022-09-20T00:21:27.044Z,2.37
2022-09-20T00:23:54.128Z,2.10
2022-09-20T00:26:20.890Z,2.63
2022-09-20T00:28:47.992Z,3.00
2022-09-20T00:31:15.726Z,2.67
2022-09-20T00:34:01.048Z,2.03
2022-09-20T00:36:28.462Z,2.07
2022-09-20T00:39:00.459Z,2.30
2022-09-20T00:41:27.764Z,2.40
2022-09-20T00:43:55.337Z,2.23
2022-09-20T00:46:39.143Z,2.60
2022-09-20T00:49:27.538Z,2.20
2022-09-20T00:52:02.150Z,2.10
2022-09-20T00:54:31.118Z,2.23
2022-09-20T00:56:58.046Z,2.50
2022-09-20T00:59:33.058Z,2.50
2022-09-20T01:02:26.035Z,3.00
2022-09-20T01:04:53.113Z,2.50
2022-09-20T01:07:24.826Z,2.70
2022-09-20T01:09:51.939Z,2.80
2022-09-20T01:12:22.441Z,2.77
2022-09-20T01:14:51.517Z,2.70
2022-09-20T01:17:22.436Z,2.23
2022-09-20T01:20:09.898Z,2.83
2022-09-20T01:22:58.155Z,2.13
2022-09-20T01:25:59.304Z,2.60
2022-09-20T01:28:28.563Z,2.60
2022-09-20T01:31:16.294Z,2.47
2022-09-20T01:34:04.201Z,2.93
2022-09-20T01:37:14.783Z,2.40
2022-09-20T01:40:05.774Z,2.90
2022-09-20T01:42:36.503Z,2.70
2022-09-20T01:45:12.115Z,3.00
2022-09-20T01:48:20.445Z,3.00
2022-09-20T01:51:24.297Z,2.80
2022-09-20T01:54:12.639Z,2.90
2022-09-20T01:57:01.659Z,3.30
2022-09-20T01:59:49.675Z,2.90
2022-09-20T02:02:39.018Z,2.67
2022-09-20T02:05:17.401Z,3.10
2022-09-20T02:08:09.554Z,2.87
2022-09-20T02:10:51.206Z,2.97
2022-09-20T02:13:40.567Z,2.80
2022-09-20T02:16:16.694Z,2.83
2022-09-20T02:18:43.768Z,2.97
2022-09-20T02:21:34.691Z,2.87
2022-09-20T02:24:18.292Z,4.40
2022-09-20T02:27:19.862Z,3.23
2022-09-20T02:29:47.440Z,3.10
2022-09-20T02:32:46.131Z,3.80
2022-09-20T02:35:47.671Z,3.30
2022-09-20T02:38:23.190Z,2.80
2022-09-20T02:41:10.668Z,3.53
2022-09-20T02:44:15.425Z,3.17
2022-09-20T02:47:03.854Z,3.20
2022-09-20T02:50:01.065Z,2.67
2022-09-20T02:52:42.471Z,3.40
2022-09-20T02:55:40.933Z,3.17
2022-09-20T02:58:31.260Z,2.97
2022-09-20T03:01:25.097Z,3.13
2022-09-20T03:04:18.854Z,3.43
2022-09-20T03:07:19.566Z,3.27
2022-09-20T03:10:00.402Z,3.40
2022-09-20T03:12:39.126Z,3.10
2022-09-20T03:15:35.831Z,3.10
2022-09-20T03:18:14.626Z,3.30
2022-09-20T03:21:09.141Z,3.60
2022-09-20T03:24:05.888Z,3.20
2022-09-20T03:26:53.628Z,3.13
2022-09-20T03:29:47.140Z,3.77
2022-09-20T03:32:44.351Z,2.70
2022-09-20T03:35:23.193Z,2.93
2022-09-20T03:38:14.137Z,2.60
2022-09-20T03:41:08.697Z,3.30
2022-09-20T03:43:41.466Z,3.00
2022-09-20T03:46:21.404Z,3.23
2022-09-20T03:49:09.460Z,3.00
2022-09-20T03:51:44.845Z,2.63
2022-09-20T03:54:26.475Z,3.10
2022-09-20T03:57:06.512Z,3.00
2022-09-20T03:59:54.902Z,3.00
2022-09-20T04:02:55.920Z,3.43
2022-09-20T04:05:54.787Z,3.10
2022-09-20T04:08:50.841Z,3.03
2022-09-20T04:11:46.101Z,3.10
2022-09-20T04:14:27.791Z,3.47
2022-09-20T04:17:15.800Z,2.77
2022-09-20T04:19:56.962Z,3.60
2022-09-20T04:22:26.527Z,2.90
2022-09-20T04:24:56.526Z,2.70
2022-09-20T04:27:35.409Z,3.17
2022-09-20T04:30:18.108Z,3.10
2022-09-20T04:33:13.159Z,3.50
2022-09-20T04:36:04.413Z,2.93
2022-09-20T04:38:31.438Z,3.67
2022-09-20T04:40:58.470Z,3.67
2022-09-20T04:44:01.982Z,3.30
2022-09-20T04:47:02.787Z,3.00
2022-09-20T04:49:35.083Z,3.50
2022-09-20T04:52:38.957Z,3.83
2022-09-20T04:55:40.918Z,3.37
2022-09-20T04:58:36.259Z,3.20
2022-09-20T05:01:16.684Z,2.90
2022-09-20T05:04:11.421Z,3.40
2022-09-20T05:06:41.108Z,3.00
2022-09-20T05:09:33.314Z,2.90
2022-09-20T05:12:35.482Z,2.97
2022-09-20T05:15:23.394Z,3.27
2022-09-20T05:18:14.153Z,2.87
2022-09-20T05:20:52.792Z,3.07
2022-09-20T05:24:00.947Z,3.00
2022-09-20T05:26:49.429Z,2.60
2022-09-20T05:29:45.012Z,2.63
2022-09-20T05:32:19.271Z,2.80
2022-09-20T05:35:27.142Z,2.80
2022-09-20T05:38:11.611Z,3.03
2022-09-20T05:41:09.287Z,3.60
2022-09-20T05:44:00.820Z,2.90
2022-09-20T05:46:27.951Z,3.30
2022-09-20T05:49:16.041Z,3.93
2022-09-20T05:51:53.002Z,3.10
2022-09-20T05:54:59.886Z,2.90
2022-09-20T05:57:48.468Z,3.03
2022-09-20T06:00:20.938Z,3.47
2022-09-20T06:03:05.842Z,3.73
2022-09-20T06:06:01.063Z,3.40
2022-09-20T06:08:30.818Z,3.80
2022-09-20T06:11:00.478Z,4.10
2022-09-20T06:13:36.227Z,4.47
2022-09-20T06:16:04.636Z,4.70
2022-09-20T06:19:01.044Z,4.50
2022-09-20T06:21:54.857Z,4.83
2022-09-20T06:24:50.276Z,5.50
2022-09-20T06:27:28.266Z,5.63
2022-09-20T06:30:01.820Z,4.90
2022-09-20T06:32:28.517Z,5.50
2022-09-20T06:34:55.245Z,6.13
2022-09-20T06:37:49.026Z,5.77
2022-09-20T06:40:58.902Z,5.43
2022-09-20T06:43:25.557Z,5.93
2022-09-20T06:45:52.316Z,5.10
2022-09-20T06:48:19.218Z,5.73
2022-09-20T06:50:46.386Z,5.70
2022-09-20T06:53:21.443Z,5.23
2022-09-20T06:55:48.188Z,5.30
2022-09-20T06:58:15.225Z,5.67
2022-09-20T07:00:41.877Z,5.13
2022-09-20T07:03:08.624Z,5.70
2022-09-20T07:05:36.244Z,4.67
2022-09-20T07:08:03.396Z,5.00
2022-09-20T07:10:30.903Z,5.10
2022-09-20T07:12:59.382Z,5.00
2022-09-20T07:15:33.219Z,5.10
2022-09-20T07:18:00.319Z,4.77
2022-09-20T07:20:27.808Z,5.10
2022-09-20T07:22:54.498Z,4.63
2022-09-20T07:25:21.643Z,4.03
2022-09-20T07:27:50.630Z,4.53
2022-09-20T07:30:19.463Z,4.23
2022-09-20T07:32:46.681Z,4.13
2022-09-20T07:35:13.690Z,4.40
2022-09-20T07:37:41.266Z,4.67
2022-09-20T07:40:10.809Z,4.10
2022-09-20T07:42:37.654Z,4.40
2022-09-20T07:45:05.173Z,4.07
2022-09-20T07:47:33.041Z,4.57
2022-09-20T07:50:00.005Z,3.60
2022-09-20T07:52:27.521Z,4.50
2022-09-20T07:54:54.657Z,4.20
2022-09-20T07:57:21.714Z,3.77
2022-09-20T07:59:48.379Z,3.40
2022-09-20T08:02:16.467Z,3.80
2022-09-20T08:04:43.863Z,3.90
2022-09-20T08:07:10.726Z,4.23
2022-09-20T08:09:37.782Z,3.60
2022-09-20T08:14:53.535Z,3.33
2022-09-20T08:17:20.303Z,3.83
2022-09-20T08:19:47.681Z,4.20
2022-09-20T08:22:14.345Z,4.13
2022-09-20T08:24:41.926Z,3.50
2022-09-20T08:27:08.943Z,3.37
2022-09-20T08:29:35.576Z,3.87
2022-09-20T08:32:03.191Z,3.63
2022-09-20T08:34:30.883Z,3.40
2022-09-20T08:36:58.008Z,3.47
2022-09-20T08:42:44.859Z,3.20
2022-09-20T08:45:34.434Z,2.77
2022-09-20T08:48:05.571Z,2.93
2022-09-20T08:50:34.205Z,3.27
2022-09-20T08:53:04.992Z,3.43
2022-09-20T08:55:39.973Z,2.87
2022-09-20T08:58:10.937Z,2.90
2022-09-20T09:00:39.622Z,3.10
2022-09-20T09:03:12.267Z,3.00
2022-09-20T09:05:44.129Z,2.40
2022-09-20T09:08:16.733Z,2.40
2022-09-20T09:10:45.943Z,2.23
2022-09-20T09:13:28.385Z,2.13
2022-09-20T09:16:02.943Z,2.10
2022-09-20T09:18:37.407Z,2.40
2022-09-20T09:21:05.896Z,2.33
2022-09-20T09:23:44.488Z,2.37
2022-09-20T09:26:16.432Z,2.13
2022-09-20T09:28:44.020Z,2.30
2022-09-20T09:31:23.122Z,2.07
2022-09-20T09:33:50.298Z,1.90
2022-09-20T09:36:23.489Z,2.23
2022-09-20T09:38:50.849Z,2.40
2022-09-20T09:41:25.189Z,1.70
2022-09-20T09:44:20.036Z,2.10
2022-09-20T09:46:46.999Z,2.77
2022-09-20T09:49:17.148Z,1.80
2022-09-20T09:52:14.517Z,3.17
2022-09-20T09:54:48.907Z,3.10
2022-09-20T09:57:36.556Z,2.50
2022-09-20T10:00:18.951Z,2.83
2022-09-20T10:03:07.009Z,2.63
2022-09-20T10:05:38.727Z,2.57
2022-09-20T10:08:09.637Z,1.77
2022-09-20T10:11:00.777Z,2.13
2022-09-20T10:13:45.940Z,2.10
2022-09-20T10:16:51.397Z,1.77
2022-09-20T10:19:24.726Z,1.77
2022-09-20T10:21:51.768Z,2.10
2022-09-20T10:24:21.618Z,2.40
2022-09-20T10:26:51.391Z,2.80
2022-09-20T10:29:33.041Z,2.70
2022-09-20T10:32:37.190Z,2.83
2022-09-20T10:35:15.713Z,2.10
2022-09-20T10:38:11.859Z,2.60
2022-09-20T10:41:34.371Z,2.30
2022-09-20T10:44:19.234Z,2.30
2022-09-20T10:46:51.809Z,1.80
2022-09-20T10:49:23.894Z,1.90
2022-09-20T10:52:32.138Z,1.90
2022-09-20T10:55:20.383Z,1.50
2022-09-20T10:58:15.349Z,1.80
2022-09-20T11:01:03.086Z,1.67
2022-09-20T11:03:41.534Z,1.50
2022-09-20T11:06:38.537Z,1.47
2022-09-20T11:09:14.011Z,2.03
2022-09-20T11:11:46.626Z,1.30
2022-09-20T11:14:21.228Z,1.90
2022-09-20T11:17:10.671Z,2.60
2022-09-20T11:19:56.486Z,2.43
2022-09-20T11:22:32.571Z,3.07
2022-09-20T11:25:29.456Z,2.83
2022-09-20T11:28:19.376Z,2.50
2022-09-20T11:31:09.094Z,2.23
2022-09-20T11:33:44.260Z,1.70
2022-09-20T11:36:39.427Z,1.80
2022-09-20T11:39:21.456Z,1.70
2022-09-20T11:41:51.814Z,1.60
2022-09-20T11:44:20.221Z,1.63
2022-09-20T11:46:52.883Z,1.90
2022-09-20T11:49:29.177Z,1.70
2022-09-20T11:52:13.621Z,2.20
2022-09-20T11:54:54.689Z,1.97
2022-09-20T11:57:23.133Z,2.10
2022-09-20T11:59:55.815Z,2.20
2022-09-20T12:02:33.950Z,1.80
2022-09-20T12:05:01.951Z,1.90
2022-09-20T12:07:38.018Z,2.43
2022-09-20T12:10:27.553Z,1.80
2022-09-20T12:13:06.665Z,1.57
2022-09-20T12:15:39.206Z,1.90
2022-09-20T12:18:09.387Z,3.07
2022-09-20T12:20:39.561Z,2.43
2022-09-20T12:23:40.660Z,1.93
2022-09-20T12:26:10.675Z,2.00
2022-09-20T12:28:39.024Z,1.80
2022-09-20T12:31:32.016Z,1.53
2022-09-20T12:34:03.119Z,1.50
2022-09-20T12:36:36.117Z,1.50
2022-09-20T12:39:05.684Z,1.20
2022-09-20T12:42:21.564Z,1.30
2022-09-20T12:44:50.998Z,1.33
2022-09-20T12:47:19.523Z,1.63
2022-09-20T12:50:04.872Z,1.40
2022-09-20T12:52:58.973Z,2.77
2022-09-20T12:55:29.871Z,1.30
2022-09-20T12:58:01.927Z,1.43
2022-09-20T13:00:36.154Z,1.10
2022-09-20T13:03:15.478Z,1.50
2022-09-20T13:05:52.531Z,1.40
2022-09-20T13:08:23.233Z,1.20
2022-09-20T13:11:00.450Z,1.20
2022-09-20T13:13:29.255Z,1.20
2022-09-20T13:15:57.034Z,1.30
2022-09-20T13:18:26.199Z,1.13
2022-09-20T13:23:29.649Z,1.50
2022-09-20T13:25:58.229Z,1.40
2022-09-20T13:28:31.317Z,1.40
2022-09-20T13:31:22.630Z,1.40
2022-09-20T13:33:49.731Z,1.80
2022-09-20T13:36:29.089Z,1.67
2022-09-20T13:38:57.653Z,1.50
2022-09-20T13:41:29.045Z,1.70
2022-09-20T13:43:56.489Z,1.53
2022-09-20T13:46:28.822Z,1.53
2022-09-20T13:49:24.455Z,1.27
2022-09-20T13:51:52.023Z,1.30
2022-09-20T13:54:19.196Z,1.53
2022-09-20T13:56:46.102Z,1.37
2022-09-20T13:59:19.329Z,1.30
2022-09-20T14:01:55.794Z,1.40
2022-09-20T14:04:25.828Z,1.47
2022-09-20T14:06:54.909Z,1.60
2022-09-20T14:09:32.821Z,1.70
2022-09-20T14:12:00.632Z,1.57
2022-09-20T14:14:28.808Z,1.60
2022-09-20T14:16:58.016Z,1.93
2022-09-20T14:19:32.849Z,1.90
2022-09-20T14:22:03.941Z,1.70
2022-09-20T14:24:36.491Z,2.50
2022-09-20T14:27:05.894Z,1.90
2022-09-20T14:29:56.750Z,1.43
2022-09-20T14:32:35.041Z,1.40
2022-09-20T14:35:07.203Z,1.30
2022-09-20T14:37:48.255Z,1.27
2022-09-20T14:40:20.985Z,1.50
2022-09-20T14:42:51.654Z,1.10
2022-09-20T14:45:30.627Z,1.40
2022-09-20T14:48:09.546Z,1.40
2022-09-20T14:50:40.842Z,1.40
2022-09-20T14:53:10.806Z,1.20
2022-09-20T14:55:39.555Z,1.70
2022-09-20T14:58:15.750Z,1.70
2022-09-20T15:00:59.204Z,1.50
2022-09-20T15:03:30.940Z,1.40
2022-09-20T15:05:58.112Z,1.60
2022-09-20T15:08:25.083Z,1.27
2022-09-20T15:10:51.843Z,1.40
2022-09-20T15:13:18.846Z,1.57
2022-09-20T15:15:49.921Z,1.33
2022-09-20T15:18:34.293Z,1.50
2022-09-20T15:21:01.722Z,2.03
2022-09-20T15:23:28.486Z,1.37
2022-09-20T15:25:55.663Z,1.80
2022-09-20T15:28:22.564Z,1.70
2022-09-20T15:30:51.143Z,1.50
2022-09-20T15:33:20.066Z,1.90
2022-09-20T15:35:47.511Z,1.90
2022-09-20T15:38:17.705Z,1.37
2022-09-20T15:40:47.248Z,1.37
2022-09-20T15:43:17.016Z,1.40
2022-09-20T15:45:50.081Z,1.90
2022-09-20T15:48:22.193Z,1.90
2022-09-20T15:51:01.895Z,1.20
2022-09-20T15:53:36.731Z,1.60
2022-09-20T15:56:13.367Z,1.10
2022-09-20T15:58:46.731Z,1.20
2022-09-20T16:01:16.464Z,4.97
2022-09-20T16:03:44.852Z,1.63
2022-09-20T16:06:12.334Z,1.70
2022-09-20T16:08:43.339Z,2.10
2022-09-20T16:11:13.641Z,2.60
2022-09-20T16:13:40.681Z,1.30
2022-09-20T16:16:09.654Z,1.20
2022-09-20T16:18:55.050Z,2.43
2022-09-20T16:21:22.632Z,1.30
2022-09-20T16:23:52.539Z,1.57
2022-09-20T16:26:21.179Z,3.00
2022-09-20T16:28:49.154Z,1.40
2022-09-20T16:31:41.995Z,1.40
2022-09-20T16:34:30.517Z,1.73
2022-09-20T16:37:02.964Z,1.73
2022-09-20T16:39:31.296Z,3.37
2022-09-20T16:42:06.301Z,4.93
2022-09-20T16:44:35.131Z,4.43
2022-09-20T16:47:02.593Z,1.97
2022-09-20T16:49:29.892Z,2.40
2022-09-20T16:51:56.669Z,2.30
2022-09-20T16:54:27.324Z,2.43
2022-09-20T16:56:56.495Z,2.53
2022-09-20T16:59:23.633Z,2.30
2022-09-20T17:01:51.182Z,2.20
2022-09-20T17:04:18.901Z,1.90
2022-09-20T17:06:46.389Z,1.70
2022-09-20T17:09:14.407Z,1.83
2022-09-20T17:11:45.616Z,1.93
2022-09-20T17:14:13.181Z,1.97
2022-09-20T17:16:41.609Z,1.80
2022-09-20T17:19:13.368Z,1.80
2022-09-20T17:21:43.662Z,1.80
2022-09-20T17:24:10.823Z,1.70
2022-09-20T17:26:44.306Z,1.70
2022-09-20T17:29:13.898Z,1.80
2022-09-20T17:31:42.648Z,1.97
2022-09-20T17:34:11.688Z,2.30
2022-09-20T17:36:46.060Z,1.90
2022-09-20T17:39:14.043Z,1.80
2022-09-20T17:41:43.013Z,2.53
2022-09-20T17:44:10.139Z,2.90
2022-09-20T17:46:38.627Z,2.33
2022-09-20T17:49:18.085Z,2.40
2022-09-20T17:51:55.499Z,2.17
2022-09-20T17:54:24.057Z,2.53
2022-09-20T17:56:53.398Z,2.90
2022-09-20T17:59:20.724Z,2.70
2022-09-20T18:01:49.535Z,2.60
2022-09-20T18:04:16.713Z,3.60
2022-09-20T18:06:48.614Z,3.20
2022-09-20T18:09:25.608Z,3.10
2022-09-20T18:11:53.866Z,3.07
2022-09-20T18:14:37.855Z,2.90
2022-09-20T18:17:05.544Z,2.47
2022-09-20T18:19:33.679Z,2.80
2022-09-20T18:22:02.123Z,3.00
2022-09-20T18:24:30.053Z,2.97
2022-09-20T18:26:57.112Z,4.37
2022-09-20T18:29:25.008Z,1.90
2022-09-20T18:31:57.737Z,2.37
2022-09-20T18:34:30.989Z,2.60
2022-09-20T18:36:59.845Z,2.80
2022-09-20T18:39:28.966Z,2.30
2022-09-20T18:41:55.870Z,2.50
2022-09-20T18:44:24.605Z,2.20
2022-09-20T18:46:54.978Z,2.50
2022-09-20T18:49:22.356Z,2.43
2022-09-20T18:51:49.515Z,2.60
2022-09-20T18:54:16.464Z,2.30
2022-09-20T18:56:45.379Z,3.40
2022-09-20T18:59:16.291Z,2.60
2022-09-20T19:01:55.075Z,31.67
2022-09-20T19:05:06.777Z,13.27
2022-09-20T19:07:39.259Z,3.17
2022-09-20T19:10:05.964Z,3.20
2022-09-20T19:12:49.826Z,5.63
2022-09-20T19:15:29.750Z,3.23
2022-09-20T19:18:58.759Z,3.13
2022-09-20T19:24:34.066Z,2.93
2022-09-20T19:27:00.871Z,3.00
2022-09-20T19:29:28.762Z,3.60
2022-09-20T19:31:58.815Z,3.83
2022-09-20T19:34:31.035Z,3.30
2022-09-20T19:37:20.543Z,3.53
2022-09-20T19:40:11.577Z,3.10
2022-09-20T19:43:00.114Z,3.40
2022-09-20T19:45:32.532Z,3.67
2022-09-20T19:48:16.566Z,3.20
2022-09-20T19:50:46.298Z,3.40
2022-09-20T19:53:15.030Z,3.13
2022-09-20T19:55:47.124Z,3.33
2022-09-20T19:58:15.589Z,3.47
2022-09-20T20:00:46.964Z,3.50
2022-09-20T20:03:15.485Z,3.13
2022-09-20T20:05:56.062Z,3.23
2022-09-20T20:09:00.027Z,3.23
2022-09-20T20:11:27.063Z,3.20
2022-09-20T20:14:20.412Z,3.70
2022-09-20T20:17:07.866Z,3.50
2022-09-20T20:19:50.680Z,3.50
2022-09-20T20:22:39.236Z,4.50
2022-09-20T20:25:18.807Z,4.87
2022-09-20T20:27:45.611Z,4.47
2022-09-20T20:30:12.731Z,4.27
2022-09-20T20:32:40.445Z,4.40
2022-09-20T20:35:07.765Z,4.17
2022-09-20T20:37:34.901Z,4.70
2022-09-20T20:40:02.489Z,4.33
2022-09-20T20:42:29.599Z,4.60
2022-09-20T20:44:56.750Z,4.40
2022-09-20T20:47:23.805Z,4.53
2022-09-20T20:49:53.402Z,4.20
2022-09-20T20:52:20.138Z,4.40
2022-09-20T20:54:47.234Z,4.27
2022-09-20T20:57:18.932Z,4.43
2022-09-20T20:59:46.255Z,4.47
2022-09-20T21:02:13.368Z,4.60
2022-09-20T21:04:40.696Z,4.43
2022-09-20T21:07:07.741Z,4.80
2022-09-20T21:09:34.942Z,4.77
2022-09-20T21:12:03.087Z,4.50
2022-09-20T21:14:33.726Z,5.30
2022-09-20T21:17:01.885Z,4.47
2022-09-20T21:19:28.640Z,5.27
2022-09-20T21:21:55.294Z,5.10
2022-09-20T21:24:23.422Z,5.70
2022-09-20T21:26:50.265Z,4.83
2022-09-20T21:29:17.044Z,5.17
2022-09-20T21:31:45.570Z,5.30
2022-09-20T21:34:13.877Z,5.63
2022-09-20T21:36:47.172Z,5.50
2022-09-20T21:39:13.946Z,5.67
2022-09-20T21:41:41.057Z,5.57
2022-09-20T21:44:10.525Z,6.17
2022-09-20T21:46:41.947Z,6.50
2022-09-20T21:49:12.746Z,5.40
2022-09-20T21:51:45.104Z,5.57
2022-09-20T21:54:12.371Z,6.27
2022-09-20T21:56:40.970Z,5.50
2022-09-20T21:59:08.003Z,5.93
2022-09-20T22:01:37.719Z,6.97
2022-09-20T22:04:11.700Z,6.00
2022-09-20T22:06:43.303Z,5.90
2022-09-20T22:09:12.068Z,5.50
2022-09-20T22:11:41.925Z,5.73
2022-09-20T22:14:09.479Z,6.27
2022-09-20T22:16:38.464Z,5.87
2022-09-20T22:19:07.757Z,6.50
2022-09-20T22:21:37.348Z,6.10
2022-09-20T22:24:07.714Z,6.40
2022-09-20T22:26:36.878Z,6.30
2022-09-20T22:29:04.149Z,5.93
2022-09-20T22:31:33.097Z,6.40
2022-09-20T22:34:03.888Z,6.07
2022-09-20T22:36:35.846Z,5.67
2022-09-20T22:39:04.673Z,6.20
2022-09-20T22:41:31.437Z,5.70
2022-09-20T22:43:58.504Z,6.57
2022-09-20T22:46:28.209Z,6.17
2022-09-20T22:48:56.342Z,7.10
2022-09-20T22:51:24.268Z,6.23
2022-09-20T22:53:52.645Z,7.10
2022-09-20T22:56:31.103Z,6.73
2022-09-20T22:59:00.304Z,6.87
2022-09-20T23:01:32.215Z,6.40
2022-09-20T23:04:04.477Z,6.57
2022-09-20T23:06:41.633Z,7.00
2022-09-20T23:09:10.788Z,6.80
2022-09-20T23:11:43.097Z,6.13
2022-09-20T23:14:15.030Z,6.37
2022-09-20T23:16:42.042Z,6.23
2022-09-20T23:19:09.532Z,6.50
2022-09-20T23:21:38.147Z,5.90
2022-09-20T23:24:07.452Z,6.30
2022-09-20T23:26:36.463Z,5.00
2022-09-20T23:29:06.178Z,5.87
2022-09-20T23:31:34.543Z,5.53
2022-09-20T23:34:02.655Z,6.07
2022-09-20T23:36:31.670Z,5.90
2022-09-20T23:38:58.662Z,5.63
2022-09-20T23:41:27.053Z,5.73
2022-09-20T23:43:54.283Z,5.73
2022-09-20T23:46:22.775Z,5.30
2022-09-20T23:48:52.783Z,5.90
2022-09-20T23:51:22.509Z,4.83
2022-09-20T23:53:50.232Z,5.60
2022-09-20T23:56:17.385Z,4.93
2022-09-20T23:58:45.015Z,4.90
